San Jose, Costa Rica

8:02 AM CST on October 24, 2014 (GMT -0600)
Pozos de Santa Ana | Change Station
CLOSE
Current Station
Personal Weather Station
Location: San Josť, SAN JOSť
Elevation: 2825 ft
Nearby Weather Stations

Elev 2825 ft 9.96 °N, 84.19 °W | Updated 59 seconds ago

Clear
Clear
79.7 °F
Feels Like 83 °F
N
0.7
Wind Variable Wind from SE
Gusts 2.2 mph

Today
High -- | Low -- °F
--% Chance of Precip.
Yesterday
High -- | Low -- °F
Precip. -- in
5:26 AM 5:15 PM
New Moon, 0% visible
Pressure 30.04 in
Visibility -9999.0 miles
Clouds
Heat Index 83 °F
Dew Point 71 °F
Humidity 76%
Rainfall 0.00 in
Snow Depth Not available.
UV Not available.
Pollen Not available.
Air Quality Not available.
Flu Activity Not available.
METAR MROC 241400Z 00000KT CAVOK 26/19 A3004 BECMG 24007KT

More Conditions Fewer Conditions

Pressure 30.04 in
Visibility -9999.0 miles
Clouds
Heat Index 83 °F
Dew Point 71 °F
Humidity 76%
Rainfall 0.00 in
Snow Depth Not available.
UV Not available.
Pollen Not available.
Air Quality Not available.
Flu Activity Not available.
METAR MROC 241400Z 00000KT CAVOK 26/19 A3004 BECMG 24007KT

More Conditions Fewer Conditions

10-Day Weather Forecast

Almanac

Astronomy

Oct. 24, 2014 Rise Set
Actual Time 5:26 AM CST 5:15 PM CST
Civil Twilight 5:04 AM CST 5:37 PM CST
Nautical Twilight 4:39 AM CST 6:02 PM CST
Astronomical Twilight 4:15 AM CST 6:26 PM CST
Moon 5:59 AM CST 6:03 PM CST
Length of Visible Light 12h 32m
Length of Day
11h 49m
Tomorrow will be 0m 30s shorter.
New Moon, 0% of the Moon is Illuminated
Today
New Moon
Oct 30
First Quarter
Nov 6
Full
Nov 14
Last Quarter
Nov 22
New

Yesterday's Extremes

Country Highs Country Lows

Community

WunderPhotos

Upload Photos

1,764,564 photos uploaded!

WunderBlogs® & News

By Dr. Jeff Masters
Director of Meteorology, Weather Underground
By Kari Strenfel
Meteorologist, Weather Underground
By Christopher C. Burt
Weather Historian, Weather Underground
October 24, 2014
October 24, 2014
October 24, 2014

Nearby

Snow Depth

Not available.

Earthquake Activity

City Distance Mag. Time & Date
No recent earthquake activity has been reported nearby.
Minimum magnitude displayed is 2.5.

Coastal Water Temperatures

Place Temperature
No Stations Reporting

Nearby Weather Stations